createdAt,value
2023-05-08T00:00:43.449Z,22.30
2023-05-08T00:03:10.336Z,23.23
2023-05-08T00:05:37.590Z,22.67
2023-05-08T00:08:04.386Z,23.23
2023-05-08T00:10:31.116Z,23.10
2023-05-08T00:12:57.892Z,22.60
2023-05-08T00:15:24.645Z,23.37
2023-05-08T00:17:51.520Z,22.30
2023-05-08T00:20:18.358Z,23.47
2023-05-08T00:22:45.093Z,23.27
2023-05-08T00:25:11.824Z,23.33
2023-05-08T00:27:38.715Z,22.83
2023-05-08T00:30:07.147Z,23.17
2023-05-08T00:32:33.904Z,23.10
2023-05-08T00:35:00.735Z,23.90
2023-05-08T00:37:27.591Z,22.77
2023-05-08T00:39:54.303Z,22.80
2023-05-08T00:42:21.168Z,23.83
2023-05-08T00:44:48.164Z,23.10
2023-05-08T00:47:14.840Z,23.87
2023-05-08T00:49:41.694Z,22.83
2023-05-08T00:52:08.826Z,23.47
2023-05-08T00:54:39.662Z,24.80
2023-05-08T00:57:07.002Z,24.00
2023-05-08T00:59:34.756Z,23.80
2023-05-08T01:02:02.033Z,23.97
2023-05-08T01:04:30.608Z,23.80
2023-05-08T01:06:57.712Z,24.40
2023-05-08T01:09:24.454Z,24.40
2023-05-08T01:11:56.531Z,25.47
2023-05-08T01:14:32.840Z,25.43
2023-05-08T01:17:07.782Z,25.50
2023-05-08T01:19:49.943Z,25.30
2023-05-08T01:22:16.628Z,27.03
2023-05-08T01:24:43.671Z,25.67
2023-05-08T01:27:10.549Z,25.27
2023-05-08T01:29:40.276Z,25.33
2023-05-08T01:32:26.737Z,24.23
2023-05-08T01:34:59.385Z,26.33
2023-05-08T01:37:30.300Z,26.07
2023-05-08T01:40:16.165Z,24.43
2023-05-08T01:43:03.705Z,25.67
2023-05-08T01:45:36.850Z,26.73
2023-05-08T01:48:06.344Z,25.10
2023-05-08T01:50:40.890Z,26.20
2023-05-08T01:53:09.897Z,25.03
2023-05-08T01:55:37.705Z,24.43
2023-05-08T01:58:07.882Z,25.83
2023-05-08T02:00:34.886Z,26.90
2023-05-08T02:03:02.652Z,26.53
2023-05-08T02:05:29.870Z,26.07
2023-05-08T02:07:57.158Z,26.37
2023-05-08T02:10:26.807Z,26.73
2023-05-08T02:12:54.412Z,27.37
2023-05-08T02:15:22.121Z,26.33
2023-05-08T02:17:49.638Z,27.30
2023-05-08T02:20:16.779Z,26.00
2023-05-08T02:22:44.731Z,26.70
2023-05-08T02:25:14.674Z,25.43
2023-05-08T02:27:44.235Z,25.97
2023-05-08T02:30:14.754Z,25.50
2023-05-08T02:32:44.122Z,24.30
2023-05-08T02:35:15.136Z,24.13
2023-05-08T02:37:47.421Z,23.57
2023-05-08T02:40:15.072Z,23.93
2023-05-08T02:42:42.112Z,22.97
2023-05-08T02:45:10.218Z,22.97
2023-05-08T02:47:46.301Z,22.70
2023-05-08T02:50:36.787Z,22.80
2023-05-08T02:53:06.607Z,22.43
2023-05-08T02:55:40.171Z,25.07
2023-05-08T02:58:20.588Z,23.23
2023-05-08T03:00:56.819Z,24.13
2023-05-08T03:03:25.977Z,23.97
2023-05-08T03:05:57.911Z,24.57
2023-05-08T03:08:29.925Z,24.10
2023-05-08T03:10:59.053Z,24.37
2023-05-08T03:13:27.754Z,24.97
2023-05-08T03:15:56.556Z,25.37
2023-05-08T03:18:27.120Z,25.27
2023-05-08T03:20:55.247Z,24.63
2023-05-08T03:23:23.550Z,24.67
2023-05-08T03:25:51.499Z,25.40
2023-05-08T03:28:19.572Z,26.50
2023-05-08T03:30:47.210Z,28.20
2023-05-08T03:33:18.051Z,28.90
2023-05-08T03:35:45.315Z,28.90
2023-05-08T03:38:13.464Z,27.40
2023-05-08T03:40:45.650Z,27.67
2023-05-08T03:43:13.494Z,25.70
2023-05-08T03:45:41.128Z,27.57
2023-05-08T03:48:08.768Z,26.40
2023-05-08T03:50:36.840Z,28.50
2023-05-08T03:53:05.607Z,27.43
2023-05-08T03:55:33.370Z,27.60
2023-05-08T03:58:08.188Z,28.40
2023-05-08T04:00:34.994Z,30.33
2023-05-08T04:03:16.719Z,29.37
2023-05-08T04:05:48.065Z,28.43
2023-05-08T04:08:21.657Z,31.83
2023-05-08T04:10:50.954Z,30.23
2023-05-08T04:13:20.157Z,30.40
2023-05-08T04:16:01.003Z,29.43
2023-05-08T04:18:32.072Z,29.17
2023-05-08T04:21:03.410Z,28.57
2023-05-08T04:23:31.199Z,29.80
2023-05-08T04:25:58.398Z,30.77
2023-05-08T04:28:25.210Z,29.90
2023-05-08T04:30:52.494Z,28.40
2023-05-08T04:33:19.855Z,26.67
2023-05-08T04:35:47.085Z,25.33
2023-05-08T04:38:14.359Z,26.23
2023-05-08T04:40:42.028Z,25.03
2023-05-08T04:43:10.690Z,25.63
2023-05-08T04:45:37.908Z,25.73
2023-05-08T04:48:05.440Z,25.43
2023-05-08T04:50:32.305Z,25.53
2023-05-08T04:52:59.401Z,26.90
2023-05-08T04:55:26.601Z,25.47
2023-05-08T04:57:53.822Z,27.37
2023-05-08T05:00:20.989Z,25.83
2023-05-08T05:02:48.704Z,25.13
2023-05-08T05:05:15.858Z,25.40
2023-05-08T05:07:42.716Z,26.17
2023-05-08T05:10:10.940Z,25.37
2023-05-08T05:12:38.218Z,25.57
2023-05-08T05:15:05.267Z,24.47
2023-05-08T05:17:35.131Z,24.07
2023-05-08T05:20:02.535Z,23.70
2023-05-08T05:22:29.656Z,22.27
2023-05-08T05:24:56.583Z,22.77
2023-05-08T05:27:24.723Z,22.63
2023-05-08T05:29:51.730Z,22.97
2023-05-08T05:32:18.513Z,21.50
2023-05-08T05:34:45.598Z,22.67
2023-05-08T05:37:12.363Z,21.77
2023-05-08T05:39:39.311Z,23.50
2023-05-08T05:42:06.208Z,21.57
2023-05-08T05:44:33.676Z,22.77
2023-05-08T05:47:00.489Z,22.97
2023-05-08T05:49:27.348Z,21.90
2023-05-08T05:51:54.258Z,22.10
2023-05-08T05:54:21.082Z,22.07
2023-05-08T05:56:48.540Z,21.73
2023-05-08T05:59:15.671Z,20.93
2023-05-08T06:01:42.678Z,20.03
2023-05-08T06:04:09.401Z,20.40
2023-05-08T06:06:36.199Z,19.63
2023-05-08T06:09:04.498Z,19.03
2023-05-08T06:11:31.516Z,19.73
2023-05-08T06:13:58.247Z,18.80
2023-05-08T06:16:25.216Z,20.00
2023-05-08T06:18:53.007Z,18.50
2023-05-08T06:21:19.720Z,18.03
2023-05-08T06:23:46.821Z,19.17
2023-05-08T06:26:13.533Z,17.77
2023-05-08T06:28:40.369Z,17.50
2023-05-08T06:31:07.058Z,17.73
2023-05-08T06:33:33.842Z,16.87
2023-05-08T06:36:00.733Z,16.53
2023-05-08T06:38:27.541Z,16.60
2023-05-08T06:40:55.462Z,15.30
2023-05-08T06:43:22.455Z,15.33
2023-05-08T06:45:49.152Z,15.00
2023-05-08T06:48:15.941Z,14.43
2023-05-08T06:50:43.439Z,14.57
2023-05-08T06:53:10.344Z,14.10
2023-05-08T06:55:37.127Z,14.73
2023-05-08T06:58:04.091Z,14.73
2023-05-08T07:00:31.188Z,15.60
2023-05-08T07:02:58.509Z,15.90
2023-05-08T07:05:25.324Z,16.70
2023-05-08T07:07:54.723Z,16.87
2023-05-08T07:10:22.736Z,16.30
2023-05-08T07:12:49.827Z,16.80
2023-05-08T07:15:25.583Z,16.57
2023-05-08T07:17:53.582Z,17.43
2023-05-08T07:20:21.794Z,18.00
2023-05-08T07:22:48.682Z,17.30
2023-05-08T07:25:16.370Z,17.40
2023-05-08T07:27:43.585Z,18.30
2023-05-08T07:30:10.856Z,18.53
2023-05-08T07:32:39.623Z,17.40
2023-05-08T07:35:10.349Z,16.80
2023-05-08T07:37:37.914Z,17.80
2023-05-08T07:40:04.923Z,17.27
2023-05-08T07:42:31.687Z,15.90
2023-05-08T07:44:58.363Z,16.17
2023-05-08T07:47:25.169Z,15.80
2023-05-08T07:49:51.955Z,15.65
2023-05-08T07:52:18.612Z,14.68
2023-05-08T07:54:45.419Z,14.57
2023-05-08T07:57:12.159Z,13.55
2023-05-08T07:59:38.968Z,14.82
2023-05-08T08:02:05.776Z,16.20
2023-05-08T08:04:33.320Z,15.10
2023-05-08T08:07:02.753Z,14.60
2023-05-08T08:09:29.574Z,13.75
2023-05-08T08:11:56.525Z,12.77
2023-05-08T08:14:24.016Z,13.40
2023-05-08T08:16:50.878Z,14.13
2023-05-08T08:19:17.718Z,14.40
2023-05-08T08:21:44.557Z,14.27
2023-05-08T08:24:11.617Z,13.67
2023-05-08T08:26:38.391Z,14.13
2023-05-08T08:29:05.156Z,14.63
2023-05-08T08:31:31.998Z,13.73
2023-05-08T08:33:58.733Z,14.13
2023-05-08T08:36:25.517Z,14.03
2023-05-08T08:38:52.840Z,14.17
2023-05-08T08:41:19.608Z,18.40
2023-05-08T08:43:46.421Z,18.30
2023-05-08T08:46:15.502Z,18.33
2023-05-08T08:48:44.063Z,18.57
2023-05-08T08:51:14.600Z,18.63
2023-05-08T08:53:44.300Z,18.37
2023-05-08T08:56:11.892Z,18.17
2023-05-08T08:58:43.978Z,19.00
2023-05-08T09:01:14.835Z,18.00
2023-05-08T09:03:41.862Z,18.80
2023-05-08T09:06:08.969Z,19.37
2023-05-08T09:08:36.074Z,18.03
2023-05-08T09:11:02.930Z,18.47
2023-05-08T09:13:30.091Z,18.13
2023-05-08T09:16:00.124Z,17.17
2023-05-08T09:18:27.779Z,18.20
2023-05-08T09:20:54.517Z,16.53
2023-05-08T09:23:21.304Z,17.70
2023-05-08T09:25:48.584Z,16.07
2023-05-08T09:28:19.274Z,14.37
2023-05-08T09:30:53.475Z,13.70
2023-05-08T09:33:21.412Z,14.17
2023-05-08T09:35:51.200Z,14.53
2023-05-08T09:38:38.266Z,13.80
2023-05-08T09:41:09.116Z,14.37
2023-05-08T09:43:36.090Z,14.90
2023-05-08T09:46:22.385Z,14.57
2023-05-08T09:48:49.607Z,13.67
2023-05-08T09:51:16.502Z,14.00
2023-05-08T09:53:43.640Z,14.77
2023-05-08T09:56:10.498Z,14.07
2023-05-08T09:58:41.202Z,13.33
2023-05-08T10:01:08.463Z,14.47
2023-05-08T10:03:48.390Z,19.70
2023-05-08T10:06:15.427Z,22.07
2023-05-08T10:08:42.430Z,21.30
2023-05-08T10:11:22.127Z,20.37
2023-05-08T10:13:49.481Z,19.93
2023-05-08T10:16:17.406Z,19.73
2023-05-08T10:18:48.913Z,19.70
2023-05-08T10:21:16.535Z,18.90
2023-05-08T10:23:43.971Z,18.77
2023-05-08T10:26:14.822Z,18.83
2023-05-08T10:28:49.976Z,18.23
2023-05-08T10:31:18.107Z,18.70
2023-05-08T10:33:45.782Z,18.13
2023-05-08T10:36:13.532Z,16.90
2023-05-08T10:38:41.492Z,16.77
2023-05-08T10:41:09.013Z,16.03
2023-05-08T10:43:36.338Z,16.50
2023-05-08T10:46:08.563Z,16.93
2023-05-08T10:48:54.138Z,16.40
2023-05-08T10:51:33.003Z,15.17
2023-05-08T10:54:05.035Z,15.87
2023-05-08T10:56:31.784Z,15.93
2023-05-08T10:58:59.149Z,15.97
2023-05-08T11:01:26.570Z,15.80
2023-05-08T11:03:55.560Z,15.20
2023-05-08T11:06:42.021Z,15.33
2023-05-08T11:09:09.095Z,15.00
2023-05-08T11:11:38.671Z,14.30
2023-05-08T11:14:08.677Z,15.80
2023-05-08T11:16:53.768Z,16.63
2023-05-08T11:19:27.182Z,18.30
2023-05-08T11:22:12.875Z,20.37
2023-05-08T11:24:40.697Z,24.73
2023-05-08T11:27:07.962Z,24.27
2023-05-08T11:29:36.294Z,23.57
2023-05-08T11:32:03.195Z,27.73
2023-05-08T11:34:42.551Z,27.87
2023-05-08T11:37:10.321Z,33.80
2023-05-08T11:39:37.226Z,32.47
2023-05-08T11:42:22.862Z,33.47
2023-05-08T11:44:49.811Z,29.97
2023-05-08T11:47:18.978Z,32.83
2023-05-08T11:49:45.921Z,30.87
2023-05-08T11:52:12.703Z,35.90
2023-05-08T11:54:39.481Z,33.73
2023-05-08T11:57:06.186Z,32.90
2023-05-08T11:59:35.343Z,31.93
2023-05-08T12:02:08.595Z,30.30
2023-05-08T12:04:48.616Z,30.43
2023-05-08T12:07:16.643Z,33.57
2023-05-08T12:09:43.987Z,33.07
2023-05-08T12:12:10.798Z,29.67
2023-05-08T12:14:37.711Z,28.63
2023-05-08T12:17:04.442Z,29.57
2023-05-08T12:19:31.236Z,30.17
2023-05-08T12:21:58.587Z,31.83
2023-05-08T12:24:26.463Z,31.63
2023-05-08T12:26:54.629Z,29.67
2023-05-08T12:29:22.824Z,31.00
2023-05-08T12:31:50.082Z,31.00
2023-05-08T12:34:17.191Z,28.93
2023-05-08T12:36:43.950Z,30.77
2023-05-08T12:39:15.097Z,55.43
2023-05-08T12:41:52.113Z,31.37
2023-05-08T12:44:26.184Z,29.30
2023-05-08T12:46:54.192Z,28.93
2023-05-08T12:49:28.879Z,26.90
2023-05-08T12:52:02.319Z,27.60
2023-05-08T12:54:36.339Z,28.50
2023-05-08T12:57:08.828Z,25.20
2023-05-08T12:59:35.621Z,26.80
2023-05-08T13:02:02.392Z,23.27
2023-05-08T13:04:29.743Z,24.00
2023-05-08T13:06:57.052Z,22.43
2023-05-08T13:09:23.762Z,25.17
2023-05-08T13:11:50.461Z,26.93
2023-05-08T13:14:17.235Z,70.23
2023-05-08T13:16:51.884Z,20.17
2023-05-08T13:19:19.365Z,21.73
2023-05-08T13:21:47.849Z,22.10
2023-05-08T13:24:15.295Z,22.10
2023-05-08T13:26:42.289Z,21.27
2023-05-08T13:29:09.023Z,19.20
2023-05-08T13:31:36.212Z,17.23
2023-05-08T13:34:03.324Z,14.53
2023-05-08T13:36:31.894Z,14.77
2023-05-08T13:38:58.683Z,11.17
2023-05-08T13:41:25.377Z,11.07
2023-05-08T13:43:52.118Z,9.83
2023-05-08T13:46:18.919Z,11.00
2023-05-08T13:48:45.664Z,10.03
2023-05-08T13:51:12.368Z,9.80
2023-05-08T13:53:39.384Z,12.47
2023-05-08T13:56:06.263Z,8.97
2023-05-08T13:58:32.987Z,9.93
2023-05-08T14:01:07.526Z,9.37
2023-05-08T14:03:41.436Z,15.40
2023-05-08T14:06:08.657Z,10.33
2023-05-08T14:08:44.720Z,9.80
2023-05-08T14:11:12.793Z,8.37
2023-05-08T14:13:39.547Z,10.33
2023-05-08T14:16:08.765Z,8.47
2023-05-08T14:18:35.761Z,9.10
2023-05-08T14:21:02.456Z,10.10
2023-05-08T14:23:29.690Z,12.20
2023-05-08T14:25:56.438Z,10.10
2023-05-08T14:28:24.924Z,9.50
2023-05-08T14:30:51.607Z,11.10
2023-05-08T14:33:19.588Z,9.53
2023-05-08T14:35:48.424Z,9.87
2023-05-08T14:38:15.235Z,9.73
2023-05-08T14:40:42.154Z,9.67
2023-05-08T14:43:08.936Z,10.67
2023-05-08T14:45:36.046Z,10.43
2023-05-08T14:48:02.827Z,10.70
2023-05-08T14:50:29.737Z,10.33
2023-05-08T14:52:56.569Z,9.67
2023-05-08T14:55:23.865Z,10.03
2023-05-08T14:57:50.759Z,9.17
2023-05-08T15:00:17.991Z,9.43
2023-05-08T15:02:45.168Z,8.30
2023-05-08T15:05:19.117Z,7.83
2023-05-08T15:07:47.287Z,7.10
2023-05-08T15:10:14.367Z,7.30
2023-05-08T15:12:41.340Z,8.00
2023-05-08T15:15:08.230Z,7.50
2023-05-08T15:17:36.628Z,7.57
2023-05-08T15:20:04.367Z,6.80
2023-05-08T15:22:31.354Z,6.17
2023-05-08T15:25:02.591Z,6.30
2023-05-08T15:27:30.501Z,5.40
2023-05-08T15:29:57.873Z,5.50
2023-05-08T15:32:24.865Z,5.60
2023-05-08T15:34:51.726Z,5.30
2023-05-08T15:37:18.880Z,5.33
2023-05-08T15:39:45.621Z,5.23
2023-05-08T15:42:12.339Z,5.70
2023-05-08T15:47:08.911Z,5.20
2023-05-08T15:49:35.711Z,5.43
2023-05-08T15:52:02.396Z,4.53
2023-05-08T15:54:29.199Z,4.60
2023-05-08T15:56:55.877Z,5.20
2023-05-08T15:59:22.641Z,4.53
2023-05-08T16:01:50.300Z,3.37
2023-05-08T16:04:18.922Z,3.87
2023-05-08T16:06:45.699Z,3.60
2023-05-08T16:09:12.432Z,4.17
2023-05-08T16:11:39.182Z,3.63
2023-05-08T16:14:06.397Z,4.13
2023-05-08T16:16:33.277Z,3.57
2023-05-08T16:19:00.275Z,3.87
2023-05-08T16:21:27.285Z,4.37
2023-05-08T16:23:54.024Z,4.03
2023-05-08T16:26:20.768Z,4.33
2023-05-08T16:28:47.567Z,4.00
2023-05-08T16:31:14.454Z,4.40
2023-05-08T16:33:41.286Z,4.47
2023-05-08T16:36:08.184Z,4.00
2023-05-08T16:38:34.917Z,4.70
2023-05-08T16:41:02.844Z,3.60
2023-05-08T16:43:29.529Z,3.73
2023-05-08T16:45:59.170Z,3.50
2023-05-08T16:48:26.897Z,3.97
2023-05-08T16:50:55.964Z,3.50
2023-05-08T16:53:22.708Z,3.70
2023-05-08T16:55:49.733Z,3.80
2023-05-08T16:58:16.451Z,4.20
2023-05-08T17:00:43.216Z,4.10
2023-05-08T17:03:09.957Z,4.30
2023-05-08T17:05:37.167Z,3.73
2023-05-08T17:08:03.883Z,4.10
2023-05-08T17:10:30.672Z,3.90
2023-05-08T17:12:57.459Z,4.00
2023-05-08T17:15:24.196Z,4.33
2023-05-08T17:17:50.965Z,5.00
2023-05-08T17:20:17.916Z,4.33
2023-05-08T17:22:44.906Z,4.47
2023-05-08T17:25:11.699Z,4.67
2023-05-08T17:27:39.053Z,4.73
2023-05-08T17:30:06.430Z,4.80
2023-05-08T17:32:33.268Z,4.77
2023-05-08T17:35:00.040Z,4.80
2023-05-08T17:37:26.772Z,5.03
2023-05-08T17:39:53.823Z,5.10
2023-05-08T17:42:20.927Z,5.10
2023-05-08T17:44:47.801Z,5.20
2023-05-08T17:47:14.552Z,5.80
2023-05-08T17:49:41.438Z,5.73
2023-05-08T17:52:08.264Z,5.60
2023-05-08T17:54:35.462Z,5.33
2023-05-08T17:57:02.356Z,6.27
2023-05-08T17:59:29.126Z,6.17
2023-05-08T18:01:55.884Z,6.40
2023-05-08T18:04:22.692Z,5.53
2023-05-08T18:06:51.764Z,5.93
2023-05-08T18:09:19.443Z,6.37
2023-05-08T18:11:46.206Z,6.33
2023-05-08T18:14:12.970Z,6.57
2023-05-08T18:16:39.834Z,6.30
2023-05-08T18:19:06.670Z,6.97
2023-05-08T18:21:33.552Z,6.47
2023-05-08T18:24:01.096Z,7.13
2023-05-08T18:26:27.901Z,6.80
2023-05-08T18:28:54.689Z,7.40
2023-05-08T18:31:21.646Z,6.77
2023-05-08T18:33:48.747Z,6.90
2023-05-08T18:36:15.559Z,7.27
2023-05-08T18:38:42.564Z,7.23
2023-05-08T18:41:09.396Z,6.57
2023-05-08T18:43:36.237Z,7.03
2023-05-08T18:46:11.235Z,6.60
2023-05-08T18:48:38.591Z,6.37
2023-05-08T18:51:05.540Z,6.80
2023-05-08T18:53:33.127Z,6.60
2023-05-08T18:56:02.359Z,7.03
2023-05-08T18:58:29.219Z,6.90
2023-05-08T19:00:56.790Z,7.43
2023-05-08T19:03:27.110Z,7.57
2023-05-08T19:05:56.939Z,6.77
2023-05-08T19:08:23.965Z,6.60
2023-05-08T19:10:50.760Z,6.93
2023-05-08T19:13:20.913Z,6.83
2023-05-08T19:15:47.713Z,6.77
2023-05-08T19:18:14.970Z,6.57
2023-05-08T19:20:41.776Z,7.23
2023-05-08T19:23:08.509Z,6.90
2023-05-08T19:25:35.439Z,7.00
2023-05-08T19:28:04.204Z,7.07
2023-05-08T19:30:30.964Z,6.87
2023-05-08T19:32:57.695Z,6.93
2023-05-08T19:35:24.527Z,7.10
2023-05-08T19:37:51.427Z,8.00
2023-05-08T19:40:20.980Z,7.57
2023-05-08T19:42:47.742Z,7.60
2023-05-08T19:45:16.418Z,7.77
2023-05-08T19:47:43.258Z,7.90
2023-05-08T19:50:12.708Z,8.10
2023-05-08T19:52:39.783Z,8.43
2023-05-08T19:55:06.841Z,8.23
2023-05-08T19:57:33.591Z,7.87
2023-05-08T20:00:00.268Z,8.10
2023-05-08T20:02:27.097Z,7.83
2023-05-08T20:05:31.260Z,7.80
2023-05-08T20:07:40.958Z,8.30
2023-05-08T20:10:07.911Z,8.30
2023-05-08T20:12:34.602Z,8.00
2023-05-08T20:15:01.365Z,9.30
2023-05-08T20:17:28.162Z,8.73
2023-05-08T20:19:55.020Z,9.57
2023-05-08T20:22:21.871Z,8.87
2023-05-08T20:24:48.584Z,9.33
2023-05-08T20:27:15.481Z,9.23
2023-05-08T20:29:42.354Z,8.80
2023-05-08T20:32:14.700Z,9.30
2023-05-08T20:34:41.989Z,9.27
2023-05-08T20:37:09.201Z,8.60
2023-05-08T20:39:35.869Z,8.90
2023-05-08T20:42:02.602Z,8.77
2023-05-08T20:44:29.397Z,8.83
2023-05-08T20:46:56.162Z,9.37
2023-05-08T20:49:23.385Z,9.00
2023-05-08T20:51:50.163Z,9.30
2023-05-08T20:54:16.927Z,9.00
2023-05-08T20:56:43.667Z,9.10
2023-05-08T20:59:10.450Z,9.60
2023-05-08T21:01:37.268Z,8.87
2023-05-08T21:04:04.348Z,8.43
2023-05-08T21:06:31.154Z,8.90
2023-05-08T21:08:58.000Z,8.37
2023-05-08T21:11:25.152Z,8.50
2023-05-08T21:13:51.892Z,8.03
2023-05-08T21:16:18.711Z,8.37
2023-05-08T21:18:45.602Z,7.60
2023-05-08T21:21:16.082Z,8.17
2023-05-08T21:23:43.139Z,8.00
2023-05-08T21:26:09.949Z,7.70
2023-05-08T21:28:36.826Z,7.60
2023-05-08T21:31:03.735Z,7.60
2023-05-08T21:33:30.671Z,9.37
2023-05-08T21:35:57.470Z,9.67
2023-05-08T21:38:24.233Z,11.40
2023-05-08T21:40:51.555Z,13.20
2023-05-08T21:43:18.269Z,13.70
2023-05-08T21:45:44.966Z,13.87
2023-05-08T21:48:11.680Z,15.40
2023-05-08T21:50:38.414Z,15.30
2023-05-08T21:53:05.303Z,16.23
2023-05-08T21:55:32.597Z,16.00
2023-05-08T21:57:59.330Z,17.27
2023-05-08T22:00:27.016Z,17.40
2023-05-08T22:02:53.829Z,16.33
2023-05-08T22:05:20.570Z,16.43
2023-05-08T22:07:47.695Z,16.13
2023-05-08T22:10:14.523Z,17.03
2023-05-08T22:12:41.296Z,17.20
2023-05-08T22:15:17.971Z,17.33
2023-05-08T22:17:52.906Z,20.07
2023-05-08T22:20:19.656Z,19.13
2023-05-08T22:22:47.601Z,20.53
2023-05-08T22:25:14.641Z,20.73
2023-05-08T22:27:41.522Z,21.27
2023-05-08T22:30:08.533Z,22.03
2023-05-08T22:32:35.246Z,24.93
2023-05-08T22:35:01.992Z,24.40
2023-05-08T22:37:30.085Z,24.70
2023-05-08T22:39:56.905Z,27.03
2023-05-08T22:42:24.196Z,27.00
2023-05-08T22:44:51.124Z,28.80
2023-05-08T22:47:17.860Z,27.07
2023-05-08T22:49:44.613Z,28.27
2023-05-08T22:52:11.384Z,27.73
2023-05-08T22:54:38.169Z,28.77
2023-05-08T22:57:04.947Z,27.87
2023-05-08T22:59:31.818Z,27.87
2023-05-08T23:01:58.583Z,29.67
2023-05-08T23:04:25.416Z,28.67
2023-05-08T23:06:52.182Z,30.07
2023-05-08T23:09:19.527Z,30.47
2023-05-08T23:11:46.346Z,27.67
2023-05-08T23:14:13.087Z,28.40
2023-05-08T23:16:39.936Z,28.83
2023-05-08T23:19:07.554Z,29.03
2023-05-08T23:21:34.696Z,30.27
2023-05-08T23:24:01.417Z,30.90
2023-05-08T23:26:28.179Z,31.00
2023-05-08T23:28:54.878Z,30.23
2023-05-08T23:31:21.821Z,30.67
2023-05-08T23:33:48.596Z,29.77
2023-05-08T23:36:15.647Z,29.50
2023-05-08T23:38:42.434Z,32.30
2023-05-08T23:41:09.803Z,30.60
2023-05-08T23:43:36.522Z,30.13
2023-05-08T23:46:03.262Z,29.17
2023-05-08T23:48:29.969Z,30.63
2023-05-08T23:50:57.032Z,29.13
2023-05-08T23:53:23.787Z,29.67
2023-05-08T23:55:53.506Z,28.87
2023-05-08T23:58:20.323Z,28.83
